Terminal Aerodrome Forecast
Issued by NWS Cleveland, OH

Home | Current Version | Previous Version | Graphics & Text | Print | Product List | Glossary On
Versions: 1 2 3 4 5 6 7 8 9 10 11 12 13 14 15
000
FTUS41 KCLE 201720
TAFCAK
TAF
KCAK 201720Z 2018/2118 VRB03KT P6SM SCT050 BKN120
     FM202000 VRB03KT P6SM VCSH BKN050
     FM210000 VRB04KT P6SM FEW050
     FM210600 00000KT 4SM BR SKC
     FM210900 00000KT 2SM BR SKC
      TEMPO 2111/2114 1/2SM FG SCT020
     FM211500 17002KT P6SM SKC=

USA.gov is the U.S. government's official web portal to all federal, state and local government web resources and services.